createdAt,value
2022-11-29T00:03:14.303Z,37.22
2022-11-29T00:08:17.597Z,43.25
2022-11-29T00:13:22.243Z,40.40
2022-11-29T00:18:25.545Z,31.33
2022-11-29T00:23:28.820Z,23.70
2022-11-29T00:28:33.799Z,28.95
2022-11-29T00:33:37.028Z,28.35
2022-11-29T00:38:40.380Z,26.23
2022-11-29T00:43:45.167Z,27.05
2022-11-29T00:48:48.401Z,26.80
2022-11-29T00:53:51.705Z,29.15
2022-11-29T00:58:56.341Z,31.63
2022-11-29T01:04:01.284Z,33.55
2022-11-29T01:09:05.518Z,22.90
2022-11-29T01:14:10.447Z,19.77
2022-11-29T01:19:13.718Z,28.27
2022-11-29T01:24:17.004Z,21.20
2022-11-29T01:29:21.686Z,24.77
2022-11-29T01:34:24.978Z,24.15
2022-11-29T01:39:28.293Z,22.67
2022-11-29T01:45:06.174Z,25.27
2022-11-29T01:50:11.023Z,23.98
2022-11-29T01:55:14.987Z,44.97
2022-11-29T02:00:21.389Z,31.50
2022-11-29T02:05:26.359Z,52.78
2022-11-29T02:10:45.791Z,28.50
2022-11-29T02:15:58.116Z,62.10
2022-11-29T02:21:28.453Z,63.90
2022-11-29T02:27:01.344Z,36.17
2022-11-29T02:32:41.682Z,72.70
2022-11-29T02:38:03.409Z,99.80
2022-11-29T02:43:29.431Z,42.75
2022-11-29T02:48:52.144Z,91.57
2022-11-29T02:54:01.552Z,191.40
2022-11-29T02:59:12.455Z,171.98
2022-11-29T03:04:27.337Z,171.63
2022-11-29T03:09:38.255Z,203.15
2022-11-29T03:14:50.829Z,67.40
2022-11-29T03:20:07.657Z,94.25
2022-11-29T03:25:19.153Z,57.95
2022-11-29T03:30:23.038Z,144.38
2022-11-29T03:35:37.945Z,144.73
2022-11-29T03:40:47.877Z,166.80
2022-11-29T03:45:57.341Z,178.07
2022-11-29T03:51:07.834Z,84.38
2022-11-29T03:56:27.431Z,95.15
2022-11-29T04:01:56.250Z,36.40
2022-11-29T04:07:16.486Z,43.55
2022-11-29T04:12:46.624Z,26.02
2022-11-29T04:18:16.201Z,17.48
2022-11-29T04:24:05.668Z,30.92
2022-11-29T04:29:20.688Z,14.55
2022-11-29T04:34:47.413Z,15.55
2022-11-29T04:40:25.481Z,19.40
2022-11-29T04:46:00.397Z,15.57
2022-11-29T04:51:22.722Z,16.77
2022-11-29T04:56:35.996Z,18.35
2022-11-29T05:01:51.701Z,17.02
2022-11-29T05:07:03.565Z,30.75
2022-11-29T05:12:16.165Z,17.33
2022-11-29T05:17:34.769Z,27.83
2022-11-29T05:22:49.805Z,17.52
2022-11-29T05:27:59.623Z,23.33
2022-11-29T05:33:19.079Z,21.75
2022-11-29T05:38:40.295Z,24.73
2022-11-29T05:44:01.155Z,19.13
2022-11-29T05:49:18.306Z,13.13
2022-11-29T05:54:30.838Z,15.00
2022-11-29T05:59:39.398Z,17.83
2022-11-29T06:04:58.759Z,18.42
2022-11-29T06:10:05.532Z,16.75
2022-11-29T06:15:39.454Z,16.45
2022-11-29T06:20:58.725Z,15.13
2022-11-29T06:26:19.596Z,16.63
2022-11-29T06:31:29.682Z,12.82
2022-11-29T06:36:37.570Z,11.90
2022-11-29T06:41:40.758Z,9.60
2022-11-29T06:46:49.172Z,11.85
2022-11-29T06:52:07.095Z,10.13
2022-11-29T06:57:18.261Z,13.20
2022-11-29T07:02:35.465Z,8.00
2022-11-29T07:07:39.244Z,10.38
2022-11-29T07:12:43.090Z,12.32
2022-11-29T07:17:58.151Z,10.20
2022-11-29T07:23:07.844Z,8.93
2022-11-29T07:28:22.308Z,11.23
2022-11-29T07:33:35.822Z,12.87
2022-11-29T07:38:54.299Z,11.25
2022-11-29T07:44:04.705Z,11.50
2022-11-29T07:49:11.254Z,11.90
2022-11-29T07:54:19.175Z,7.88
2022-11-29T07:59:22.303Z,10.75
2022-11-29T08:04:26.942Z,10.02
2022-11-29T08:09:30.090Z,11.20
2022-11-29T08:14:33.780Z,9.38
2022-11-29T08:19:38.342Z,13.13
2022-11-29T08:24:41.501Z,12.33
2022-11-29T08:29:44.706Z,12.02
2022-11-29T08:34:49.694Z,8.57
2022-11-29T08:39:52.850Z,10.98
2022-11-29T08:44:55.974Z,12.48
2022-11-29T08:50:03.527Z,8.73
2022-11-29T08:55:07.491Z,9.30
2022-11-29T09:00:12.034Z,11.55
2022-11-29T09:05:16.792Z,11.53
2022-11-29T09:10:20.116Z,8.95
2022-11-29T09:15:23.273Z,10.82
2022-11-29T09:20:27.944Z,11.80
2022-11-29T09:25:31.177Z,10.05
2022-11-29T09:30:36.689Z,12.13
2022-11-29T09:35:41.215Z,9.65
2022-11-29T09:40:52.712Z,10.03
2022-11-29T09:46:03.357Z,10.48
2022-11-29T09:51:20.086Z,10.27
2022-11-29T09:56:29.840Z,10.20
2022-11-29T10:01:38.499Z,10.27
2022-11-29T10:06:47.062Z,9.82
2022-11-29T10:12:02.441Z,10.95
2022-11-29T10:27:25.065Z,13.00
2022-11-29T10:32:33.326Z,13.13
2022-11-29T10:37:38.072Z,11.63
2022-11-29T10:42:50.329Z,10.50
2022-11-29T10:47:55.209Z,10.32
2022-11-29T10:53:06.069Z,9.93
2022-11-29T10:58:15.613Z,11.35
2022-11-29T11:03:25.754Z,11.40
2022-11-29T11:08:31.900Z,10.05
2022-11-29T11:13:36.481Z,13.57
2022-11-29T11:18:39.894Z,12.43
2022-11-29T11:23:53.313Z,14.43
2022-11-29T11:29:00.734Z,14.43
2022-11-29T11:34:30.288Z,14.63
2022-11-29T11:39:34.853Z,15.15
2022-11-29T11:44:49.504Z,14.80
2022-11-29T11:49:57.209Z,11.30
2022-11-29T11:55:05.722Z,13.02
2022-11-29T12:06:15.925Z,12.90
2022-11-29T12:11:21.875Z,12.10
2022-11-29T12:16:29.696Z,10.15
2022-11-29T12:21:38.859Z,11.00
2022-11-29T12:27:00.024Z,13.77
2022-11-29T12:32:19.031Z,15.10
2022-11-29T12:37:27.860Z,13.77
2022-11-29T12:42:42.358Z,13.38
2022-11-29T12:47:56.406Z,13.50
2022-11-29T12:53:11.957Z,16.00
2022-11-29T12:58:26.476Z,11.23
2022-11-29T13:03:38.566Z,12.57
2022-11-29T13:09:14.734Z,15.43
2022-11-29T13:14:42.624Z,16.10
2022-11-29T13:19:51.335Z,13.10
2022-11-29T13:24:58.865Z,25.33
2022-11-29T13:30:05.944Z,24.20
2022-11-29T13:35:19.654Z,19.38
2022-11-29T13:40:32.417Z,18.00
2022-11-29T13:45:41.559Z,16.05
2022-11-29T13:50:46.228Z,15.75
2022-11-29T13:56:00.122Z,15.98
2022-11-29T14:01:09.360Z,16.42
2022-11-29T14:06:18.895Z,14.45
2022-11-29T14:11:25.797Z,13.40
2022-11-29T14:16:35.447Z,13.70
2022-11-29T14:22:31.590Z,12.77
2022-11-29T14:27:58.945Z,14.75
2022-11-29T14:33:11.184Z,12.45
2022-11-29T14:38:20.337Z,13.85
2022-11-29T14:43:27.882Z,9.57
2022-11-29T14:48:34.295Z,10.80
2022-11-29T14:53:39.057Z,11.55
2022-11-29T14:58:42.254Z,14.25
2022-11-29T15:03:50.966Z,13.02
2022-11-29T15:09:05.042Z,14.10
2022-11-29T15:14:17.298Z,15.07
2022-11-29T15:19:51.200Z,13.48
2022-11-29T15:24:56.396Z,10.75
2022-11-29T15:30:00.566Z,12.18
2022-11-29T15:35:06.388Z,12.27
2022-11-29T15:40:14.095Z,12.48
2022-11-29T15:45:39.119Z,11.75
2022-11-29T15:55:51.900Z,13.13
2022-11-29T16:00:56.137Z,11.52
2022-11-29T16:06:07.601Z,12.48
2022-11-29T16:11:17.207Z,13.18
2022-11-29T16:16:23.090Z,11.52
2022-11-29T16:21:29.122Z,15.73
2022-11-29T16:26:36.738Z,15.68
2022-11-29T16:31:39.958Z,12.10
2022-11-29T16:36:44.621Z,15.15
2022-11-29T16:42:03.798Z,16.75
2022-11-29T16:47:12.462Z,17.02
2022-11-29T16:52:27.166Z,17.05
2022-11-29T16:57:31.263Z,21.55
2022-11-29T17:02:34.659Z,17.37
2022-11-29T17:07:41.360Z,15.98
2022-11-29T17:12:48.081Z,18.00
2022-11-29T17:17:51.657Z,18.45
2022-11-29T17:22:56.209Z,21.40
2022-11-29T17:27:59.342Z,26.98
2022-11-29T17:33:02.502Z,20.83
2022-11-29T17:38:07.073Z,21.70
2022-11-29T17:43:10.345Z,22.90
2022-11-29T17:48:13.493Z,25.80
2022-11-29T17:53:18.054Z,25.00
2022-11-29T17:58:21.183Z,23.88
2022-11-29T18:03:24.303Z,38.15
2022-11-29T18:08:29.206Z,40.13
2022-11-29T18:13:32.349Z,41.70
2022-11-29T18:18:36.365Z,32.90
2022-11-29T18:23:44.037Z,45.63
2022-11-29T18:28:48.035Z,51.63
2022-11-29T18:33:53.758Z,37.55
2022-11-29T18:39:00.262Z,36.90
2022-11-29T18:44:05.775Z,41.10
2022-11-29T18:49:12.092Z,36.88
2022-11-29T18:54:18.752Z,39.45
2022-11-29T18:59:23.102Z,44.17
2022-11-29T19:04:26.284Z,75.07
2022-11-29T19:09:30.817Z,62.03
2022-11-29T19:14:34.101Z,63.67
2022-11-29T19:19:37.224Z,48.63
2022-11-29T19:24:41.789Z,41.80
2022-11-29T19:29:44.936Z,52.47
2022-11-29T19:34:48.054Z,51.58
2022-11-29T19:39:52.987Z,65.78
2022-11-29T19:50:19.625Z,47.38
2022-11-29T19:55:24.189Z,44.35
2022-11-29T20:00:28.348Z,40.07
2022-11-29T20:05:31.497Z,41.60
2022-11-29T20:10:36.177Z,63.78
2022-11-29T20:15:39.353Z,37.00
2022-11-29T20:20:42.553Z,35.67
2022-11-29T20:25:51.554Z,43.30
2022-11-29T20:30:55.165Z,33.97
2022-11-29T20:36:07.106Z,30.42
2022-11-29T20:41:16.589Z,42.03
2022-11-29T20:46:20.219Z,34.70
2022-11-29T20:51:28.386Z,26.85
2022-11-29T20:56:32.931Z,26.63
2022-11-29T21:01:36.112Z,32.40
2022-11-29T21:06:39.798Z,26.83
2022-11-29T21:11:44.807Z,29.50
2022-11-29T21:16:48.478Z,28.77
2022-11-29T21:22:04.376Z,26.92
2022-11-29T21:27:14.809Z,26.08
2022-11-29T21:32:23.213Z,25.85
2022-11-29T21:37:29.345Z,27.27
2022-11-29T21:42:33.909Z,27.63
2022-11-29T21:47:37.106Z,20.00
2022-11-29T21:52:40.262Z,26.73
2022-11-29T21:57:44.782Z,25.17
2022-11-29T22:02:47.988Z,28.20
2022-11-29T22:07:51.150Z,20.90
2022-11-29T22:12:55.729Z,26.75
2022-11-29T22:17:58.955Z,31.73
2022-11-29T22:23:02.249Z,26.33
2022-11-29T22:28:06.897Z,22.25
2022-11-29T22:33:13.336Z,22.95
2022-11-29T22:38:16.783Z,26.25
2022-11-29T22:43:21.346Z,17.02
2022-11-29T22:48:24.505Z,22.47
2022-11-29T22:53:27.658Z,22.25
2022-11-29T22:58:32.255Z,23.33
2022-11-29T23:03:36.799Z,23.07
2022-11-29T23:08:40.864Z,23.90
2022-11-29T23:13:45.710Z,26.73
2022-11-29T23:18:49.438Z,25.20
2022-11-29T23:23:56.281Z,29.38
2022-11-29T23:29:01.266Z,25.77
2022-11-29T23:34:04.878Z,33.73
2022-11-29T23:39:08.372Z,32.03
2022-11-29T23:44:12.915Z,26.10
2022-11-29T23:49:16.071Z,23.77
2022-11-29T23:54:19.249Z,22.92
2022-11-29T23:59:23.803Z,25.00
